Time;durP1;ratioP1;P1;durP2;ratioP2;P2;SDS_P1;SDS_P2;PMS_P1;PMS_P2;Temp;Humidity;BMP_temperature;BMP_pressure;BME280_temperature;BME280_humidity;BME280_pressure;Samples;Min_cycle;Max_cycle;Signal;HPM_P1;HPM_P2
2023/02/24 00:02:24;;;;;;;35.97;21.67;;;8.50;99.90;;;;;;5029523;28;20041;-79
2023/02/24 00:04:51;;;;;;;34.45;21.30;;;8.50;99.90;;;;;;5009882;28;20497;-79
2023/02/24 00:07:17;;;;;;;34.60;22.65;;;8.50;99.90;;;;;;5011044;28;20050;-79
2023/02/24 00:09:43;;;;;;;31.05;15.57;;;8.60;99.90;;;;;;5017718;28;20049;-79
2023/02/24 00:12:11;;;;;;;31.05;18.23;;;8.60;99.90;;;;;;4997722;28;20407;-79
2023/02/24 00:14:39;;;;;;;29.73;17.15;;;8.50;99.90;;;;;;5019883;28;20033;-79
2023/02/24 00:17:08;;;;;;;28.55;18.67;;;8.60;99.90;;;;;;5027689;28;20484;-79
2023/02/24 00:19:35;;;;;;;20.65;14.27;;;8.60;99.90;;;;;;4997253;28;20029;-80
2023/02/24 00:22:02;;;;;;;27.60;17.35;;;8.60;99.90;;;;;;5038886;28;20046;-79
2023/02/24 00:24:28;;;;;;;28.02;15.98;;;8.60;99.90;;;;;;5009675;28;20387;-79
2023/02/24 00:26:56;;;;;;;31.50;20.67;;;8.60;99.90;;;;;;5019191;28;20034;-79
2023/02/24 00:29:23;;;;;;;31.88;20.23;;;8.70;99.90;;;;;;5037638;28;20034;-79
2023/02/24 00:31:57;;;;;;;30.83;20.60;;;8.70;99.90;;;;;;5037181;28;20034;-79
2023/02/24 00:34:25;;;;;;;32.10;22.23;;;8.70;99.90;;;;;;5007340;28;20053;-79
2023/02/24 00:36:51;;;;;;;20.98;13.35;;;8.70;99.90;;;;;;5006608;28;20029;-80
2023/02/24 00:39:17;;;;;;;27.50;16.85;;;8.80;99.90;;;;;;4999676;28;20402;-79
2023/02/24 00:41:43;;;;;;;23.70;15.95;;;8.80;99.90;;;;;;5021757;28;20061;-80
2023/02/24 00:44:12;;;;;;;20.10;13.00;;;8.80;99.90;;;;;;5024430;28;20368;-80
2023/02/24 00:46:39;;;;;;;24.52;15.23;;;8.80;99.90;;;;;;5014232;28;20045;-79
2023/02/24 00:49:09;;;;;;;20.73;13.25;;;8.80;99.90;;;;;;5008163;28;20033;-79
2023/02/24 00:51:36;;;;;;;20.58;13.77;;;8.80;99.90;;;;;;5025399;28;20041;-80
2023/02/24 00:54:03;;;;;;;22.33;14.27;;;8.80;99.90;;;;;;4996992;28;20027;-79
2023/02/24 00:56:29;;;;;;;20.23;13.13;;;8.80;99.90;;;;;;5021265;28;20106;-79
2023/02/24 00:58:56;;;;;;;31.13;19.60;;;8.80;99.90;;;;;;5032838;28;20030;-79
2023/02/24 01:01:25;;;;;;;13.50;9.30;;;8.80;99.90;;;;;;5020906;28;20042;-79
2023/02/24 01:03:54;;;;;;;12.82;9.38;;;8.80;99.90;;;;;;5044828;28;20037;-78
2023/02/24 01:06:21;;;;;;;26.02;17.25;;;8.80;99.90;;;;;;5001964;28;20037;-78
2023/02/24 01:08:48;;;;;;;32.58;20.40;;;8.80;99.90;;;;;;5032365;28;20049;-78
2023/02/24 01:14:03;;;;;;;27.63;16.88;;;8.80;99.90;;;;;;5018774;28;20036;-78
2023/02/24 01:16:29;;;;;;;24.30;16.02;;;8.80;99.90;;;;;;5004377;28;20030;-78
2023/02/24 01:18:55;;;;;;;29.27;17.73;;;8.80;99.90;;;;;;5001411;28;20034;-78
2023/02/24 01:21:22;;;;;;;23.25;12.90;;;8.70;99.90;;;;;;5040837;28;20042;-78
2023/02/24 01:23:49;;;;;;;27.00;16.23;;;8.70;99.90;;;;;;5014207;28;20026;-79
2023/02/24 01:26:16;;;;;;;26.05;14.45;;;8.70;99.90;;;;;;5033527;28;20044;-78
2023/02/24 01:28:46;;;;;;;29.00;18.67;;;8.70;99.90;;;;;;5045828;28;20045;-79
2023/02/24 01:31:15;;;;;;;27.23;16.80;;;8.70;99.90;;;;;;5011920;28;20034;-78
2023/02/24 01:33:44;;;;;;;26.85;13.50;;;8.70;99.90;;;;;;5035325;28;20041;-78
2023/02/24 01:36:15;;;;;;;28.90;19.15;;;8.70;99.90;;;;;;5047000;28;20048;-78
2023/02/24 01:38:42;;;;;;;25.98;17.38;;;8.70;99.90;;;;;;5015490;28;20038;-78
2023/02/24 01:41:12;;;;;;;30.13;17.70;;;8.70;99.90;;;;;;5012285;28;20411;-78
2023/02/24 01:44:12;;;;;;;31.02;19.38;;;8.70;99.90;;;;;;5017075;28;20040;-78
2023/02/24 01:46:49;;;;;;;26.08;15.60;;;8.70;99.90;;;;;;5030261;28;20034;-78
2023/02/24 01:49:28;;;;;;;27.65;16.85;;;8.80;99.90;;;;;;5004278;28;20041;-78
2023/02/24 01:52:09;;;;;;;22.65;14.70;;;8.80;99.90;;;;;;5016634;28;20052;-77
2023/02/24 01:54:43;;;;;;;27.08;18.30;;;8.80;99.90;;;;;;4998833;28;20052;-78
2023/02/24 01:57:09;;;;;;;20.75;12.38;;;8.80;99.90;;;;;;5007376;28;20033;-78
2023/02/24 01:59:36;;;;;;;22.10;13.57;;;8.80;99.90;;;;;;4986619;28;20193;-78
2023/02/24 02:02:05;;;;;;;14.73;9.65;;;8.80;99.90;;;;;;5003309;28;20046;-78
2023/02/24 02:05:04;;;;;;;26.85;16.48;;;8.80;99.90;;;;;;4974711;28;20534;-78
2023/02/24 02:07:30;;;;;;;25.23;15.85;;;8.80;99.90;;;;;;4972125;28;20042;-78
2023/02/24 02:09:59;;;;;;;21.08;12.73;;;8.80;99.90;;;;;;4971355;28;20046;-78
2023/02/24 02:12:26;;;;;;;16.65;10.15;;;8.80;99.90;;;;;;4938476;28;20035;-78
2023/02/24 02:14:53;;;;;;;18.75;12.30;;;8.80;99.90;;;;;;4953896;28;20043;-78
2023/02/24 02:17:46;;;;;;;32.38;18.15;;;8.80;99.90;;;;;;4971471;28;20035;-78
2023/02/24 02:20:47;;;;;;;24.02;14.80;;;8.80;99.90;;;;;;4965218;28;20034;-78
2023/02/24 02:23:46;;;;;;;23.48;16.55;;;8.80;99.90;;;;;;4954565;28;20051;-78
2023/02/24 02:26:34;;;;;;;26.15;15.65;;;8.80;99.90;;;;;;4955904;28;20051;-78
2023/02/24 02:29:18;;;;;;;28.83;18.15;;;8.80;99.90;;;;;;4965637;28;20045;-78
2023/02/24 02:32:22;;;;;;;25.48;17.35;;;8.80;99.90;;;;;;4954384;28;20038;-78
2023/02/24 02:34:56;;;;;;;28.33;15.35;;;8.80;99.90;;;;;;4959470;28;20042;-78
2023/02/24 02:37:48;;;;;;;25.60;13.98;;;8.80;99.90;;;;;;4966028;28;20039;-78
2023/02/24 02:40:20;;;;;;;29.77;17.27;;;8.80;99.90;;;;;;4958151;28;20062;-78
2023/02/24 02:42:50;;;;;;;32.28;19.52;;;8.80;99.90;;;;;;4967473;28;20050;-78
2023/02/24 02:45:39;;;;;;;30.88;17.98;;;8.80;99.90;;;;;;4980575;28;20033;-78
2023/02/24 02:48:14;;;;;;;26.65;15.77;;;8.90;99.90;;;;;;4993105;28;20034;-77
2023/02/24 02:51:15;;;;;;;31.33;18.00;;;8.90;99.90;;;;;;4988692;28;20090;-78
2023/02/24 02:53:49;;;;;;;28.98;16.85;;;8.90;99.90;;;;;;4976045;28;20051;-78
2023/02/24 02:56:18;;;;;;;27.25;17.40;;;8.90;99.90;;;;;;4966719;28;20050;-77
2023/02/24 02:58:47;;;;;;;22.58;14.38;;;8.90;99.90;;;;;;4978595;28;20043;-77
2023/02/24 03:01:15;;;;;;;33.83;17.13;;;8.90;99.90;;;;;;4986268;28;20047;-78
2023/02/24 03:03:44;;;;;;;20.05;11.32;;;8.90;99.90;;;;;;4985826;28;20491;-78
2023/02/24 03:06:27;;;;;;;21.80;12.05;;;8.90;99.90;;;;;;4991665;28;20042;-78
2023/02/24 03:08:58;;;;;;;30.33;16.48;;;8.90;99.90;;;;;;4986559;28;20034;-78
2023/02/24 03:11:24;;;;;;;32.15;16.40;;;8.90;99.90;;;;;;4986601;28;20023;-78
2023/02/24 03:13:52;;;;;;;28.98;16.92;;;9.00;99.90;;;;;;5005473;28;20039;-78
2023/02/24 03:16:18;;;;;;;18.30;8.93;;;8.90;99.90;;;;;;4986364;28;20058;-78
2023/02/24 03:18:52;;;;;;;26.25;13.02;;;9.00;99.90;;;;;;4992197;28;20406;-77
2023/02/24 03:21:45;;;;;;;29.98;17.77;;;9.00;99.90;;;;;;4978598;28;20050;-78
2023/02/24 03:24:11;;;;;;;23.02;13.88;;;8.90;99.90;;;;;;4976083;28;20510;-78
2023/02/24 03:26:50;;;;;;;29.60;15.75;;;8.90;99.90;;;;;;4970338;28;20058;-77
2023/02/24 03:29:22;;;;;;;30.70;16.17;;;9.00;99.90;;;;;;4982672;28;20033;-77
2023/02/24 03:32:01;;;;;;;28.55;15.60;;;8.90;99.90;;;;;;4979749;28;20689;-77
2023/02/24 03:34:30;;;;;;;30.50;15.85;;;8.90;99.90;;;;;;4986180;28;20030;-77
2023/02/24 03:36:56;;;;;;;32.60;16.73;;;9.00;99.90;;;;;;4989455;28;20494;-77
2023/02/24 03:39:22;;;;;;;29.08;17.77;;;8.90;99.90;;;;;;4985888;28;20031;-78
2023/02/24 03:41:58;;;;;;;28.42;16.15;;;9.00;99.90;;;;;;4985364;28;20054;-78
2023/02/24 03:44:24;;;;;;;31.20;17.70;;;8.90;99.90;;;;;;4979280;28;20038;-78
2023/02/24 03:46:51;;;;;;;30.42;18.52;;;8.90;99.90;;;;;;4955200;28;20038;-78
2023/02/24 03:49:17;;;;;;;28.52;17.98;;;8.90;99.90;;;;;;4971093;28;20027;-78
2023/02/24 03:51:49;;;;;;;28.55;16.13;;;8.90;99.90;;;;;;4988370;28;20049;-78
2023/02/24 03:54:31;;;;;;;24.40;15.52;;;8.90;99.90;;;;;;4972441;28;20037;-77
2023/02/24 03:57:00;;;;;;;31.52;17.73;;;8.90;99.90;;;;;;4975043;28;20034;-78
2023/02/24 03:59:29;;;;;;;30.60;18.90;;;8.90;99.90;;;;;;4982323;28;20033;-78
2023/02/24 04:02:20;;;;;;;30.88;18.75;;;8.90;99.90;;;;;;4979921;28;20046;-78
2023/02/24 04:05:10;;;;;;;39.33;19.63;;;8.90;99.90;;;;;;4970064;28;20027;-78
2023/02/24 04:07:51;;;;;;;30.77;19.35;;;8.80;99.90;;;;;;4975785;28;20651;-78
2023/02/24 04:10:53;;;;;;;33.13;19.83;;;8.80;99.90;;;;;;4974329;28;20046;-78
2023/02/24 04:13:33;;;;;;;30.90;17.88;;;8.80;99.90;;;;;;4988181;28;20054;-77
2023/02/24 04:16:26;;;;;;;38.95;19.73;;;8.80;99.90;;;;;;4953548;28;20536;-78
2023/02/24 04:18:57;;;;;;;36.50;19.63;;;8.80;99.90;;;;;;4988204;28;20042;-78
2023/02/24 04:21:23;;;;;;;32.27;19.13;;;8.80;99.90;;;;;;4970065;28;20047;-78
2023/02/24 04:23:50;;;;;;;28.27;17.88;;;8.80;99.90;;;;;;4957651;28;20354;-78
2023/02/24 04:26:16;;;;;;;34.45;19.50;;;8.80;99.90;;;;;;4972175;28;20053;-78
2023/02/24 04:28:42;;;;;;;33.08;17.20;;;8.80;99.90;;;;;;4967913;28;20049;-78
2023/02/24 04:31:17;;;;;;;34.67;18.10;;;8.80;99.90;;;;;;4987272;28;20177;-78
2023/02/24 04:33:49;;;;;;;33.03;18.08;;;8.80;99.90;;;;;;4969777;28;20404;-78
2023/02/24 04:36:20;;;;;;;31.70;18.77;;;8.70;99.90;;;;;;4972194;28;20054;-77
2023/02/24 04:38:46;;;;;;;33.83;19.38;;;8.80;99.90;;;;;;4953510;28;20038;-78
2023/02/24 04:41:19;;;;;;;34.42;19.80;;;8.70;99.90;;;;;;4981541;28;20058;-78
2023/02/24 04:43:47;;;;;;;34.55;20.00;;;8.70;99.90;;;;;;4980761;28;20057;-79
2023/02/24 04:46:13;;;;;;;33.88;18.30;;;8.70;99.90;;;;;;4982025;28;20500;-78
2023/02/24 04:48:39;;;;;;;26.52;14.52;;;8.80;99.90;;;;;;4960624;28;20477;-78
2023/02/24 04:51:06;;;;;;;32.85;16.17;;;8.70;99.90;;;;;;4987809;28;20045;-78
2023/02/24 04:53:32;;;;;;;20.70;13.05;;;8.70;99.90;;;;;;4994087;28;20042;-78
2023/02/24 04:56:06;;;;;;;35.10;20.00;;;8.70;99.90;;;;;;4985186;28;20054;-76
2023/02/24 04:58:33;;;;;;;23.33;11.75;;;8.70;99.90;;;;;;4981379;28;20035;-77
2023/02/24 05:00:59;;;;;;;16.17;9.70;;;8.70;99.90;;;;;;4982829;28;20038;-77
2023/02/24 05:03:27;;;;;;;41.05;20.88;;;8.70;99.90;;;;;;4973050;28;20035;-78
2023/02/24 05:05:58;;;;;;;34.78;18.00;;;8.70;99.90;;;;;;4973032;28;20042;-77
2023/02/24 05:08:26;;;;;;;22.85;15.00;;;8.70;99.90;;;;;;4977404;28;20027;-77
2023/02/24 05:10:52;;;;;;;30.83;16.17;;;8.70;99.90;;;;;;4976002;28;20026;-78
2023/02/24 05:13:26;;;;;;;36.55;19.58;;;8.60;99.90;;;;;;4973753;28;20472;-77
2023/02/24 05:16:03;;;;;;;39.67;21.75;;;8.70;99.90;;;;;;4991527;28;20034;-78
2023/02/24 05:18:35;;;;;;;22.48;11.15;;;8.70;99.90;;;;;;4972096;28;20033;-78
2023/02/24 05:24:10;;;;;;;40.03;20.05;;;8.70;99.90;;;;;;4978903;28;20081;-78
2023/02/24 05:26:37;;;;;;;42.67;20.60;;;8.70;99.90;;;;;;4982614;28;20045;-78
2023/02/24 05:29:04;;;;;;;38.88;19.52;;;8.70;99.90;;;;;;4970453;28;20475;-78
2023/02/24 05:31:30;;;;;;;23.08;10.88;;;8.70;99.90;;;;;;4972760;28;20051;-77
2023/02/24 05:33:58;;;;;;;46.00;24.05;;;8.70;99.90;;;;;;4988866;28;20093;-78
2023/02/24 05:36:26;;;;;;;42.97;19.33;;;8.70;99.90;;;;;;4994543;28;20019;-78
2023/02/24 05:39:05;;;;;;;44.58;20.02;;;8.70;99.90;;;;;;5005007;28;20038;-78
2023/02/24 05:41:35;;;;;;;29.17;12.88;;;8.80;99.90;;;;;;4987716;28;20046;-77
2023/02/24 05:44:03;;;;;;;36.58;19.42;;;8.70;99.90;;;;;;4954293;28;20038;-78
2023/02/24 05:46:31;;;;;;;42.03;20.50;;;8.80;99.90;;;;;;4971939;28;20408;-78
2023/02/24 05:48:59;;;;;;;48.72;23.50;;;8.80;99.90;;;;;;4991226;28;20127;-78
2023/02/24 05:51:26;;;;;;;24.40;12.48;;;8.80;99.90;;;;;;4981343;28;20034;-78
2023/02/24 05:53:56;;;;;;;46.97;20.75;;;8.80;99.90;;;;;;4975369;28;20035;-78
2023/02/24 05:56:22;;;;;;;46.10;23.00;;;8.80;99.90;;;;;;4982308;28;20648;-78
2023/02/24 05:59:00;;;;;;;46.10;22.45;;;8.80;99.90;;;;;;5005692;28;20292;-77
2023/02/24 06:01:34;;;;;;;45.17;21.88;;;8.80;99.90;;;;;;4976513;28;20050;-78
2023/02/24 06:04:04;;;;;;;42.22;19.08;;;8.80;99.90;;;;;;4999320;28;20088;-77
2023/02/24 06:06:35;;;;;;;50.55;25.13;;;8.80;99.90;;;;;;4994173;28;20491;-78
2023/02/24 06:09:06;;;;;;;50.83;22.60;;;8.80;99.90;;;;;;4974030;28;20046;-78
2023/02/24 06:11:33;;;;;;;52.28;24.65;;;8.80;99.90;;;;;;4974969;28;20030;-78
2023/02/24 06:13:59;;;;;;;33.60;15.40;;;8.80;99.90;;;;;;4987451;28;20046;-77
2023/02/24 06:16:25;;;;;;;32.15;16.02;;;8.80;99.90;;;;;;4972729;28;20041;-78
2023/02/24 06:18:51;;;;;;;48.08;20.70;;;8.80;99.90;;;;;;4973418;28;20066;-78
2023/02/24 06:21:17;;;;;;;44.97;23.48;;;8.80;99.90;;;;;;4970435;28;20042;-78
2023/02/24 06:23:44;;;;;;;27.70;13.07;;;8.80;99.90;;;;;;4986964;28;20035;-78
2023/02/24 06:26:18;;;;;;;50.47;23.90;;;8.80;99.90;;;;;;5003839;28;20082;-78
2023/02/24 06:28:44;;;;;;;46.53;20.90;;;8.80;99.90;;;;;;4978012;28;20403;-78
2023/02/24 06:31:12;;;;;;;48.67;25.15;;;8.90;99.90;;;;;;4980320;28;20047;-78
2023/02/24 06:33:39;;;;;;;46.92;23.17;;;8.90;99.90;;;;;;4968251;28;20147;-78
2023/02/24 06:36:06;;;;;;;45.08;20.90;;;8.90;99.90;;;;;;4974573;28;20042;-78
2023/02/24 06:38:35;;;;;;;19.90;10.35;;;8.90;99.90;;;;;;4975030;28;20046;-78
2023/02/24 06:41:03;;;;;;;46.75;21.60;;;8.90;99.90;;;;;;4972894;28;20392;-79
2023/02/24 06:43:30;;;;;;;51.10;23.35;;;8.80;99.90;;;;;;4974117;28;20046;-79
2023/02/24 06:45:56;;;;;;;36.40;17.10;;;8.80;99.90;;;;;;4980414;28;20049;-85
2023/02/24 06:48:22;;;;;;;43.70;19.58;;;8.90;99.90;;;;;;4972617;28;20038;-86
2023/02/24 06:50:51;;;;;;;45.22;21.98;;;8.80;99.90;;;;;;4968605;28;20038;-84
2023/02/24 06:53:17;;;;;;;57.00;25.52;;;8.80;99.90;;;;;;4992626;28;20388;-83
2023/02/24 06:55:45;;;;;;;40.22;18.67;;;8.80;99.90;;;;;;4996240;28;20045;-82
2023/02/24 06:58:16;;;;;;;53.20;24.20;;;8.80;99.90;;;;;;4987346;28;20395;-81
2023/02/24 07:00:45;;;;;;;35.25;18.23;;;8.80;99.90;;;;;;4968691;28;20049;-76
2023/02/24 07:03:15;;;;;;;42.67;20.02;;;8.80;99.90;;;;;;4991085;28;20039;-76
2023/02/24 07:05:42;;;;;;;56.80;25.50;;;8.80;99.90;;;;;;4988839;28;20499;-80
2023/02/24 07:08:08;;;;;;;47.03;21.42;;;8.80;99.90;;;;;;4990944;28;20037;-76
2023/02/24 07:10:34;;;;;;;52.78;27.42;;;8.80;99.90;;;;;;4990611;28;20073;-79
2023/02/24 07:13:00;;;;;;;28.75;13.93;;;8.80;99.90;;;;;;4974703;28;20041;-78
2023/02/24 07:15:30;;;;;;;48.65;23.00;;;8.80;99.90;;;;;;4995761;28;20038;-76
2023/02/24 07:17:57;;;;;;;50.25;23.20;;;8.80;99.90;;;;;;4991927;28;20041;-77
2023/02/24 07:20:25;;;;;;;52.38;23.00;;;8.80;99.90;;;;;;4989581;28;20043;-77
2023/02/24 07:22:51;;;;;;;42.80;17.63;;;8.80;99.90;;;;;;4968852;28;20046;-77
2023/02/24 07:25:32;;;;;;;30.50;14.85;;;8.80;99.90;;;;;;4989403;28;20495;-76
2023/02/24 07:28:00;;;;;;;46.72;23.35;;;8.80;99.90;;;;;;4984609;28;20387;-83
2023/02/24 07:30:29;;;;;;;54.55;26.50;;;8.80;99.90;;;;;;4974026;28;20045;-78
2023/02/24 07:32:56;;;;;;;54.67;25.08;;;8.80;99.90;;;;;;4983937;28;20034;-80
2023/02/24 07:35:22;;;;;;;57.47;26.77;;;8.80;99.90;;;;;;4973279;28;20472;-80
2023/02/24 07:37:49;;;;;;;42.40;18.73;;;8.80;99.90;;;;;;4973634;28;20027;-80
2023/02/24 07:40:16;;;;;;;51.58;23.83;;;8.80;99.90;;;;;;4980713;28;20019;-80
2023/02/24 07:42:46;;;;;;;40.03;17.88;;;8.80;99.90;;;;;;4973843;28;20046;-79
2023/02/24 07:45:12;;;;;;;52.75;27.30;;;8.80;99.90;;;;;;4956972;28;20031;-79
2023/02/24 07:47:39;;;;;;;59.95;28.13;;;8.80;99.90;;;;;;4984430;28;20027;-79
2023/02/24 07:50:13;;;;;;;60.30;28.73;;;8.90;99.90;;;;;;4971279;28;20465;-79
2023/02/24 07:52:40;;;;;;;59.83;26.83;;;8.90;99.90;;;;;;4973331;28;20034;-78
2023/02/24 07:55:08;;;;;;;26.75;13.32;;;8.80;99.90;;;;;;4956915;28;20034;-78
2023/02/24 07:57:36;;;;;;;44.35;18.02;;;8.90;99.90;;;;;;4983455;28;20391;-77
2023/02/24 08:00:27;;;;;;;49.88;21.48;;;8.80;99.90;;;;;;4980365;28;20031;-79
2023/02/24 08:02:54;;;;;;;50.70;22.38;;;8.80;99.90;;;;;;4958833;28;20521;-78
2023/02/24 08:05:21;;;;;;;20.52;12.40;;;8.90;99.90;;;;;;4973640;28;20030;-80
2023/02/24 08:07:50;;;;;;;26.38;12.10;;;8.80;99.90;;;;;;4976245;28;20063;-81
2023/02/24 08:10:23;;;;;;;57.50;24.75;;;8.90;99.90;;;;;;4976156;28;20049;-78
2023/02/24 08:12:53;;;;;;;62.50;27.45;;;8.90;99.90;;;;;;4991409;28;20035;-78
2023/02/24 08:15:24;;;;;;;37.63;18.47;;;8.90;99.90;;;;;;4988996;28;20027;-77
2023/02/24 08:17:58;;;;;;;63.25;29.85;;;8.90;99.90;;;;;;4972844;28;20771;-78
2023/02/24 08:20:25;;;;;;;67.88;30.85;;;9.00;99.90;;;;;;4974964;28;20041;-76
2023/02/24 08:22:52;;;;;;;35.47;16.65;;;9.00;99.90;;;;;;4980777;28;20072;-76
2023/02/24 08:25:22;;;;;;;44.38;21.25;;;9.00;99.90;;;;;;4991597;28;20039;-76
2023/02/24 08:27:55;;;;;;;42.60;19.85;;;9.00;99.90;;;;;;4982419;28;20034;-77
2023/02/24 08:30:22;;;;;;;30.33;15.75;;;9.00;99.90;;;;;;4972193;28;20030;-77
2023/02/24 08:32:55;;;;;;;61.88;27.10;;;9.00;99.90;;;;;;4972728;28;20035;-78
2023/02/24 08:35:34;;;;;;;36.13;16.30;;;9.00;99.90;;;;;;4973848;28;20027;-77
2023/02/24 08:38:09;;;;;;;28.92;12.30;;;9.00;99.90;;;;;;4972760;28;20491;-77
2023/02/24 08:40:37;;;;;;;60.00;27.80;;;9.00;99.90;;;;;;4977426;28;20033;-77
2023/02/24 08:43:16;;;;;;;42.53;19.10;;;9.00;99.90;;;;;;4971901;28;20050;-78
2023/02/24 08:45:45;;;;;;;40.25;21.05;;;9.00;99.90;;;;;;5004517;28;20038;-78
2023/02/24 08:48:17;;;;;;;56.80;26.40;;;9.10;99.90;;;;;;4992513;28;20042;-78
2023/02/24 08:50:55;;;;;;;51.08;23.60;;;9.20;99.90;;;;;;4988616;28;20482;-78
2023/02/24 08:53:22;;;;;;;40.67;18.67;;;9.20;99.90;;;;;;4974581;28;20034;-78
2023/02/24 08:55:51;;;;;;;36.63;23.45;;;9.10;99.90;;;;;;4971345;28;20496;-78
2023/02/24 08:58:18;;;;;;;50.28;23.55;;;9.10;99.90;;;;;;4985383;28;20027;-80
2023/02/24 09:00:52;;;;;;;40.30;20.35;;;9.10;99.90;;;;;;4978925;28;20038;-79
2023/02/24 09:03:32;;;;;;;31.73;13.80;;;9.10;99.90;;;;;;4972245;28;20038;-79
2023/02/24 09:06:03;;;;;;;38.55;18.17;;;9.10;99.90;;;;;;4972382;28;20030;-79
2023/02/24 09:08:32;;;;;;;;;;;9.10;99.90;;;;;;4972860;28;20046;-79
2023/02/24 09:11:09;;;;;;;32.05;15.88;;;9.10;99.90;;;;;;4989461;28;19917;-78
2023/02/24 09:13:56;;;;;;;48.95;24.45;;;9.00;99.90;;;;;;4991771;28;20030;-79
2023/02/24 09:16:23;;;;;;;48.80;23.83;;;9.00;99.90;;;;;;4972999;28;20408;-79
2023/02/24 09:24:26;;;;;;;47.08;23.85;;;8.90;99.90;;;;;;4974779;28;20065;-79
2023/02/24 09:26:57;;;;;;;48.22;23.15;;;8.90;99.90;;;;;;4974370;28;20050;-79
2023/02/24 09:29:32;;;;;;;51.85;25.65;;;9.00;99.90;;;;;;4974685;28;20039;-79
2023/02/24 09:32:05;;;;;;;41.35;19.42;;;8.90;99.90;;;;;;5006895;28;20047;-79
2023/02/24 09:34:32;;;;;;;31.65;15.77;;;8.90;99.90;;;;;;4996794;28;20089;-80
2023/02/24 09:37:01;;;;;;;33.70;15.90;;;8.90;99.90;;;;;;4986192;28;20038;-80
2023/02/24 09:44:55;;;;;;;35.00;17.13;;;8.80;99.90;;;;;;4951858;28;20032;-79
2023/02/24 09:47:55;;;;;;;27.88;14.23;;;8.80;99.90;;;;;;4949335;28;20043;-81
2023/02/24 09:50:36;;;;;;;34.25;17.50;;;8.80;99.90;;;;;;4935849;29;20552;-80
2023/02/24 09:53:12;;;;;;;23.65;13.82;;;8.80;99.90;;;;;;4935839;29;20044;-80
2023/02/24 09:56:05;;;;;;;35.53;18.60;;;8.80;99.90;;;;;;4948912;28;20128;-84
2023/02/24 09:59:09;;;;;;;32.42;17.35;;;8.80;99.90;;;;;;4958797;28;20043;-84
2023/02/24 10:02:00;;;;;;;43.85;23.17;;;8.80;99.90;;;;;;4966469;28;20034;-84
2023/02/24 10:04:52;;;;;;;32.85;17.95;;;8.70;99.90;;;;;;4942669;28;20058;-86
2023/02/24 10:07:37;;;;;;;45.05;23.17;;;8.80;99.90;;;;;;4971685;28;20035;-83
2023/02/24 10:10:28;;;;;;;49.38;24.92;;;8.70;99.90;;;;;;4974247;28;20042;-80
2023/02/24 10:13:29;;;;;;;41.35;21.90;;;8.80;99.90;;;;;;4970866;28;20508;-80
2023/02/24 10:18:59;;;;;;;29.90;16.40;;;8.70;99.90;;;;;;4974677;28;20397;-84
2023/02/24 10:21:59;;;;;;;22.92;12.00;;;8.70;99.90;;;;;;5007469;28;20400;-80
2023/02/24 10:24:29;;;;;;;37.80;19.00;;;8.70;99.90;;;;;;5002466;28;20042;-81
2023/02/24 10:26:57;;;;;;;26.85;14.05;;;8.70;99.90;;;;;;4986017;28;20041;-81
2023/02/24 10:29:49;;;;;;;51.88;25.90;;;8.70;99.90;;;;;;5009503;28;20038;-80
2023/02/24 10:32:22;;;;;;;47.63;23.67;;;8.70;99.90;;;;;;4977038;28;20043;-81
2023/02/24 10:34:52;;;;;;;35.22;19.70;;;8.70;99.90;;;;;;4958084;28;20038;-81
2023/02/24 10:37:21;;;;;;;18.92;11.07;;;8.70;99.90;;;;;;4974042;28;20026;-80
2023/02/24 10:39:48;;;;;;;46.45;23.90;;;8.70;99.90;;;;;;4975380;28;20480;-79
2023/02/24 10:42:24;;;;;;;49.17;23.70;;;8.70;99.90;;;;;;4984669;28;20030;-79
2023/02/24 10:44:51;;;;;;;24.30;12.23;;;8.80;99.90;;;;;;4993974;28;20033;-80
2023/02/24 10:47:30;;;;;;;35.78;17.92;;;8.80;99.90;;;;;;4993064;28;20031;-79
2023/02/24 10:50:00;;;;;;;38.63;20.23;;;8.80;99.90;;;;;;4979838;28;20042;-77
2023/02/24 10:52:49;;;;;;;42.22;23.42;;;8.80;99.90;;;;;;4978040;28;20042;-81
2023/02/24 10:58:27;;;;;;;33.53;16.65;;;9.00;99.90;;;;;;4997241;28;20057;-81
2023/02/24 11:01:11;;;;;;;39.83;20.17;;;9.00;99.90;;;;;;4986091;28;20050;-81
2023/02/24 11:03:59;;;;;;;40.13;23.63;;;9.00;99.90;;;;;;4974049;28;20039;-80
2023/02/24 11:17:55;;;;;;;29.75;17.40;;;8.90;99.90;;;;;;5012203;28;20041;-82
2023/02/24 11:20:36;;;;;;;25.23;11.48;;;8.90;99.90;;;;;;5011085;28;20506;-80
2023/02/24 11:23:05;;;;;;;38.08;22.92;;;8.90;99.90;;;;;;5012806;28;20049;-81
2023/02/24 11:25:39;;;;;;;44.45;14.65;;;8.90;99.90;;;;;;5013020;28;20044;-81
2023/02/24 11:28:20;;;;;;;28.90;13.07;;;8.90;99.90;;;;;;5007664;28;20380;-81
2023/02/24 11:30:46;;;;;;;40.17;23.20;;;8.90;99.90;;;;;;5036958;28;20037;-81
2023/02/24 11:33:28;;;;;;;33.63;19.02;;;8.90;99.90;;;;;;5005335;28;20033;-81
2023/02/24 11:35:57;;;;;;;;;;;8.90;99.90;;;;;;4994358;28;20043;-81
2023/02/24 11:38:38;;;;;;;27.20;15.18;;;9.00;99.90;;;;;;4994118;28;19912;-81
2023/02/24 11:41:10;;;;;;;23.33;11.20;;;8.90;99.90;;;;;;5007560;28;20030;-81
2023/02/24 11:43:37;;;;;;;21.67;12.40;;;8.80;99.90;;;;;;4995207;28;20046;-81
2023/02/24 11:46:09;;;;;;;16.83;10.02;;;8.80;99.90;;;;;;5025121;28;20494;-81
2023/02/24 11:48:40;;;;;;;31.38;18.27;;;8.80;99.90;;;;;;4992809;28;20464;-80
2023/02/24 11:51:17;;;;;;;15.82;10.02;;;8.70;99.90;;;;;;4992647;28;20041;-80
2023/02/24 11:53:56;;;;;;;36.05;21.08;;;8.80;99.90;;;;;;5007582;28;20056;-80
2023/02/24 11:56:43;;;;;;;22.38;10.73;;;8.80;99.90;;;;;;5045067;28;20053;-80
2023/02/24 11:59:12;;;;;;;36.83;20.60;;;8.80;99.90;;;;;;5011661;28;20046;-80
2023/02/24 12:02:06;;;;;;;38.00;21.98;;;8.80;99.90;;;;;;5027493;28;20056;-80
2023/02/24 12:04:39;;;;;;;18.20;10.75;;;8.80;99.90;;;;;;4987259;28;21617;-81
2023/02/24 12:07:17;;;;;;;23.80;12.85;;;8.80;99.90;;;;;;5005662;28;20150;-80
2023/02/24 12:09:46;;;;;;;12.13;7.35;;;8.70;99.90;;;;;;4990196;28;20042;-80
2023/02/24 12:12:30;;;;;;;33.92;19.92;;;8.70;99.90;;;;;;5002197;28;20026;-80
2023/02/24 12:14:58;;;;;;;34.30;20.58;;;8.70;99.90;;;;;;4963470;28;20049;-81
2023/02/24 12:17:35;;;;;;;17.30;10.98;;;8.70;99.90;;;;;;4994133;28;20035;-82
2023/02/24 12:20:20;;;;;;;32.65;18.63;;;8.70;99.90;;;;;;4961351;28;20045;-82
2023/02/24 12:22:51;;;;;;;38.85;21.10;;;8.80;99.90;;;;;;4972560;28;20047;-81
2023/02/24 12:25:18;;;;;;;19.30;10.65;;;8.80;99.90;;;;;;4980247;28;20027;-80
2023/02/24 12:27:48;;;;;;;32.55;18.02;;;8.80;99.90;;;;;;5010260;28;20038;-83
2023/02/24 12:30:35;;;;;;;27.05;15.57;;;8.80;99.90;;;;;;4970178;28;20571;-83
2023/02/24 12:33:19;;;;;;;18.25;11.35;;;8.80;99.90;;;;;;4956314;28;20053;-84
2023/02/24 12:35:54;;;;;;;37.47;19.55;;;8.80;99.90;;;;;;4971634;28;20042;-84
2023/02/24 12:38:27;;;;;;;16.05;10.65;;;8.80;99.90;;;;;;4950776;28;20417;-83
2023/02/24 12:41:22;;;;;;;35.47;20.35;;;8.80;99.90;;;;;;4976934;28;20396;-84
2023/02/24 12:43:50;;;;;;;25.13;13.15;;;8.70;99.90;;;;;;5006862;28;20061;-83
2023/02/24 12:46:47;;;;;;;24.30;13.48;;;8.70;99.90;;;;;;5022902;28;20026;-83
2023/02/24 12:49:28;;;;;;;27.90;15.80;;;8.70;99.90;;;;;;4990093;28;20038;-84
2023/02/24 12:51:54;;;;;;;;;;;8.70;99.90;;;;;;5001265;28;20045;-83
2023/02/24 12:54:23;;;;;;;37.63;20.08;;;8.70;99.90;;;;;;4996377;28;20361;-83
2023/02/24 12:57:08;;;;;;;26.75;12.93;;;8.80;99.90;;;;;;5022419;28;20079;-84
2023/02/24 12:59:37;;;;;;;35.95;19.85;;;8.70;99.90;;;;;;5028735;28;20296;-84
2023/02/24 13:02:36;;;;;;;40.08;20.17;;;8.80;99.90;;;;;;5031575;28;20041;-83
2023/02/24 13:05:26;;;;;;;29.52;17.58;;;8.80;99.90;;;;;;5033899;28;20061;-83
2023/02/24 13:08:05;;;;;;;37.33;21.08;;;8.80;99.90;;;;;;5025505;28;20046;-84
2023/02/24 13:10:43;;;;;;;32.28;15.07;;;8.80;99.90;;;;;;5047378;28;20034;-84
2023/02/24 13:13:14;;;;;;;33.55;20.52;;;8.90;99.90;;;;;;5000617;28;20407;-84
2023/02/24 13:15:55;;;;;;;38.20;21.77;;;8.80;99.90;;;;;;5041846;28;20026;-83
2023/02/24 13:18:26;;;;;;;26.50;15.00;;;8.80;99.90;;;;;;5027483;28;20034;-84
2023/02/24 13:21:03;;;;;;;31.63;19.48;;;8.80;99.90;;;;;;5007788;28;20812;-83
2023/02/24 13:23:30;;;;;;;36.58;18.10;;;8.80;99.90;;;;;;5030353;28;20068;-83
2023/02/24 13:25:56;;;;;;;33.95;19.80;;;8.80;99.90;;;;;;5019834;28;20038;-84
2023/02/24 13:28:25;;;;;;;26.63;15.45;;;8.90;99.90;;;;;;4995211;28;20031;-83
2023/02/24 13:30:59;;;;;;;30.52;14.75;;;8.90;99.90;;;;;;5034047;28;20054;-83
2023/02/24 13:33:31;;;;;;;24.15;13.13;;;8.90;99.90;;;;;;5031423;28;20041;-83
2023/02/24 13:36:12;;;;;;;36.35;18.90;;;8.90;99.90;;;;;;4992323;28;20038;-83
2023/02/24 13:38:41;;;;;;;34.22;17.95;;;9.00;99.90;;;;;;5035111;28;20117;-84
2023/02/24 13:41:07;;;;;;;35.28;18.55;;;9.00;99.90;;;;;;5010549;28;20034;-84
2023/02/24 13:43:33;;;;;;;29.85;16.48;;;9.00;99.90;;;;;;4997787;28;20410;-83